createdAt,value
2019-04-21T00:00:29.819Z,13.77
2019-04-21T00:03:08.844Z,13.76
2019-04-21T00:05:52.678Z,13.76
2019-04-21T00:08:27.541Z,13.65
2019-04-21T00:11:01.388Z,13.53
2019-04-21T00:13:21.126Z,13.54
2019-04-21T00:15:40.713Z,13.52
2019-04-21T00:18:40.661Z,13.45
2019-04-21T00:21:15.079Z,13.45
2019-04-21T00:23:53.850Z,13.43
2019-04-21T00:26:25.365Z,13.31
2019-04-21T00:29:03.973Z,13.37
2019-04-21T00:31:24.549Z,13.28
2019-04-21T00:33:41.611Z,13.21
2019-04-21T00:36:16.908Z,13.22
2019-04-21T00:39:17.089Z,13.11
2019-04-21T00:41:29.598Z,13.02
2019-04-21T00:43:57.247Z,12.92
2019-04-21T00:46:30.738Z,12.95
2019-04-21T00:49:02.114Z,12.91
2019-04-21T00:51:47.860Z,12.95
2019-04-21T00:54:18.463Z,12.86
2019-04-21T00:56:45.962Z,12.51
2019-04-21T00:59:16.361Z,12.52
2019-04-21T01:01:43.674Z,12.45
2019-04-21T01:04:20.662Z,12.44
2019-04-21T01:06:48.048Z,12.47
2019-04-21T01:09:14.474Z,12.43
2019-04-21T01:11:50.544Z,12.44
2019-04-21T01:14:32.757Z,12.36
2019-04-21T01:16:56.068Z,12.37
2019-04-21T01:19:18.248Z,12.32
2019-04-21T01:21:31.188Z,12.38
2019-04-21T01:24:08.195Z,12.38
2019-04-21T01:26:43.767Z,12.36
2019-04-21T01:29:22.367Z,12.36
2019-04-21T01:31:48.436Z,12.31
2019-04-21T01:34:27.148Z,12.30
2019-04-21T01:36:54.145Z,12.32
2019-04-21T01:39:30.837Z,12.35
2019-04-21T01:41:59.065Z,12.43
2019-04-21T01:44:36.083Z,12.32
2019-04-21T01:46:58.635Z,12.30
2019-04-21T01:49:25.826Z,12.24
2019-04-21T01:52:08.849Z,12.15
2019-04-21T01:55:00.181Z,12.17
2019-04-21T01:57:42.593Z,12.25
2019-04-21T02:00:13.563Z,12.14
2019-04-21T02:02:59.918Z,12.04
2019-04-21T02:05:34.379Z,12.11
2019-04-21T02:07:55.220Z,12.15
2019-04-21T02:10:35.279Z,12.08
2019-04-21T02:12:56.703Z,12.15
2019-04-21T02:15:36.013Z,12.11
2019-04-21T02:17:59.937Z,12.11
2019-04-21T02:20:25.784Z,12.00
2019-04-21T02:23:31.541Z,11.92
2019-04-21T02:25:38.512Z,11.83
2019-04-21T02:28:12.477Z,11.73
2019-04-21T02:31:05.900Z,11.63
2019-04-21T02:33:28.024Z,11.55
2019-04-21T02:36:04.799Z,11.52
2019-04-21T02:38:32.162Z,11.46
2019-04-21T02:43:38.864Z,11.57
2019-04-21T02:45:56.118Z,11.60
2019-04-21T02:51:15.259Z,11.38
2019-04-21T02:53:37.459Z,11.31
2019-04-21T02:58:34.848Z,11.28
2019-04-21T03:01:24.343Z,11.23
2019-04-21T03:04:00.681Z,11.26
2019-04-21T03:06:54.181Z,11.10
2019-04-21T03:09:29.752Z,11.02
2019-04-21T03:11:56.047Z,11.05
2019-04-21T03:14:40.805Z,11.00
2019-04-21T03:16:47.213Z,11.10
2019-04-21T03:19:33.007Z,11.09
2019-04-21T03:22:02.609Z,11.09
2019-04-21T03:24:29.009Z,11.07
2019-04-21T03:27:22.315Z,11.00
2019-04-21T03:29:29.527Z,10.98
2019-04-21T03:32:16.764Z,11.04
2019-04-21T03:39:37.483Z,10.97
2019-04-21T03:42:07.533Z,11.00
2019-04-21T03:44:32.286Z,11.06
2019-04-21T03:47:08.431Z,10.99
2019-04-21T03:52:42.461Z,11.04
2019-04-21T03:54:49.158Z,11.03
2019-04-21T03:59:38.847Z,11.04
2019-04-21T04:05:13.102Z,11.08
2019-04-21T04:07:59.470Z,11.05
2019-04-21T04:10:39.159Z,11.09
2019-04-21T04:13:00.822Z,11.09
2019-04-21T04:15:45.691Z,10.99
2019-04-21T04:18:00.876Z,10.99
2019-04-21T04:20:30.349Z,10.93
2019-04-21T04:23:02.939Z,10.83
2019-04-21T04:28:08.255Z,10.63
2019-04-21T04:30:38.239Z,10.54
2019-04-21T04:33:09.047Z,10.45
2019-04-21T04:38:20.116Z,10.35
2019-04-21T04:40:57.497Z,10.52
2019-04-21T04:45:56.465Z,10.70
2019-04-21T04:48:24.128Z,10.88
2019-04-21T04:50:53.535Z,10.71
2019-04-21T04:56:01.296Z,10.75
2019-04-21T04:58:29.692Z,10.84
2019-04-21T05:01:08.599Z,10.83
2019-04-21T05:03:40.175Z,10.91
2019-04-21T05:06:42.565Z,10.81
2019-04-21T05:14:09.962Z,10.68
2019-04-21T05:23:55.829Z,10.71
2019-04-21T05:26:27.481Z,10.74
2019-04-21T05:28:53.885Z,10.71
2019-04-21T05:34:42.640Z,10.82
2019-04-21T05:37:47.328Z,10.83
2019-04-21T05:40:38.903Z,10.83
2019-04-21T05:43:21.314Z,10.98
2019-04-21T05:45:53.560Z,11.18
2019-04-21T05:51:00.184Z,11.30
2019-04-21T05:53:46.813Z,11.42
2019-04-21T05:56:03.383Z,11.56
2019-04-21T05:58:34.869Z,11.76
2019-04-21T06:01:16.624Z,11.81
2019-04-21T06:03:44.861Z,11.92
2019-04-21T06:08:42.324Z,12.16
2019-04-21T06:11:23.883Z,12.29
2019-04-21T06:13:51.899Z,12.43
2019-04-21T06:16:13.981Z,12.55
2019-04-21T06:18:53.161Z,12.68
2019-04-21T06:21:16.477Z,12.79
2019-04-21T06:23:47.747Z,12.84
2019-04-21T06:28:54.557Z,13.04
2019-04-21T06:31:41.538Z,13.04
2019-04-21T06:34:13.162Z,13.09
2019-04-21T06:36:39.634Z,13.29
2019-04-21T06:39:17.915Z,13.36
2019-04-21T06:41:34.387Z,13.42
2019-04-21T06:44:07.580Z,13.48
2019-04-21T06:46:35.187Z,13.58
2019-04-21T06:49:02.596Z,13.66
2019-04-21T06:51:35.742Z,13.79
2019-04-21T06:54:09.623Z,13.83
2019-04-21T06:56:41.034Z,13.98
2019-04-21T06:59:21.118Z,14.09
2019-04-21T07:01:42.483Z,14.06
2019-04-21T07:04:18.863Z,14.10
2019-04-21T07:11:44.101Z,14.58
2019-04-21T07:16:52.564Z,14.61
2019-04-21T07:19:21.390Z,14.83
2019-04-21T07:22:03.324Z,14.86
2019-04-21T07:26:51.238Z,15.08
2019-04-21T07:29:20.641Z,15.02
2019-04-21T07:31:59.208Z,15.24
2019-04-21T07:34:27.088Z,15.24
2019-04-21T07:39:16.851Z,15.30
2019-04-21T07:41:49.774Z,15.46
2019-04-21T07:44:20.943Z,15.65
2019-04-21T07:46:47.014Z,15.67
2019-04-21T07:50:18.018Z,15.67
2019-04-21T07:52:39.444Z,15.81
2019-04-21T07:55:22.067Z,15.98
2019-04-21T07:57:39.426Z,16.00
2019-04-21T08:00:22.693Z,16.15
2019-04-21T08:02:46.470Z,16.42
2019-04-21T08:10:16.098Z,16.77
2019-04-21T08:12:41.898Z,16.82
2019-04-21T08:15:23.531Z,16.93
2019-04-21T08:17:46.866Z,17.07
2019-04-21T08:20:19.884Z,17.13
2019-04-21T08:22:51.081Z,17.32
2019-04-21T08:25:19.589Z,17.53
2019-04-21T08:27:55.467Z,17.60
2019-04-21T08:30:26.247Z,17.87
2019-04-21T08:33:02.415Z,18.08
2019-04-21T08:37:55.225Z,18.37
2019-04-21T08:40:31.576Z,18.53
2019-04-21T08:42:54.982Z,18.63
2019-04-21T08:45:35.365Z,18.99
2019-04-21T08:48:04.576Z,19.17
2019-04-21T08:50:34.245Z,19.78
2019-04-21T08:53:22.584Z,21.15
2019-04-21T08:55:58.647Z,22.66
2019-04-21T08:58:42.561Z,24.29
2019-04-21T09:01:39.767Z,25.46
2019-04-21T09:04:21.166Z,26.22
2019-04-21T09:06:57.236Z,26.37
2019-04-21T09:11:44.480Z,27.37
2019-04-21T09:14:13.124Z,27.46
2019-04-21T09:16:44.353Z,27.31
2019-04-21T09:19:21.451Z,27.55
2019-04-21T09:21:52.960Z,27.58
2019-04-21T09:24:18.896Z,28.44
2019-04-21T09:26:48.108Z,28.75
2019-04-21T09:29:10.846Z,28.88
2019-04-21T09:31:37.493Z,28.79
2019-04-21T09:34:04.450Z,29.53
2019-04-21T09:36:38.928Z,29.57
2019-04-21T09:39:12.963Z,29.20
2019-04-21T09:41:39.083Z,29.32
2019-04-21T09:44:15.068Z,29.63
2019-04-21T09:46:45.329Z,30.27
2019-04-21T09:49:12.524Z,30.29
2019-04-21T09:51:41.606Z,30.25
2019-04-21T09:54:20.157Z,29.46
2019-04-21T09:56:51.063Z,29.94
2019-04-21T09:59:20.569Z,30.13
2019-04-21T10:01:55.006Z,30.16
2019-04-21T10:04:14.476Z,31.26
2019-04-21T10:06:43.589Z,30.89
2019-04-21T10:09:17.317Z,31.60
2019-04-21T10:11:44.075Z,32.09
2019-04-21T10:14:13.874Z,32.05
2019-04-21T10:17:12.938Z,32.44
2019-04-21T10:19:42.210Z,31.11
2019-04-21T10:22:12.654Z,30.55
2019-04-21T10:24:42.480Z,29.92
2019-04-21T10:27:13.305Z,30.27
2019-04-21T10:29:44.611Z,30.19
2019-04-21T10:32:13.588Z,30.33
2019-04-21T10:34:43.363Z,30.73
2019-04-21T10:37:13.326Z,31.30
2019-04-21T10:39:43.024Z,31.56
2019-04-21T10:42:13.182Z,31.03
2019-04-21T10:44:43.177Z,31.02
2019-04-21T10:47:12.851Z,30.88
2019-04-21T10:49:44.621Z,30.46
2019-04-21T10:52:19.382Z,30.75
2019-04-21T10:55:11.240Z,31.38
2019-04-21T10:57:31.002Z,31.17
2019-04-21T11:00:01.392Z,30.99
2019-04-21T11:02:46.499Z,31.51
2019-04-21T11:05:16.746Z,31.15
2019-04-21T11:08:01.090Z,31.53
2019-04-21T11:10:22.267Z,31.10
2019-04-21T11:12:52.674Z,31.92
2019-04-21T11:15:23.223Z,32.30
2019-04-21T11:17:52.625Z,32.16
2019-04-21T11:20:22.789Z,31.64
2019-04-21T11:22:53.526Z,31.59
2019-04-21T11:25:24.141Z,31.54
2019-04-21T11:27:53.445Z,32.31
2019-04-21T11:30:23.379Z,31.52
2019-04-21T11:32:53.127Z,31.48
2019-04-21T11:35:23.425Z,30.80
2019-04-21T11:37:59.401Z,31.59
2019-04-21T11:40:25.463Z,31.58
2019-04-21T11:42:55.758Z,31.02
2019-04-21T11:45:32.539Z,31.40
2019-04-21T11:48:12.440Z,30.80
2019-04-21T11:50:43.260Z,31.18
2019-04-21T11:53:12.749Z,30.80
2019-04-21T11:55:45.362Z,31.58
2019-04-21T11:58:16.043Z,31.59
2019-04-21T12:00:47.413Z,32.08
2019-04-21T12:03:17.357Z,31.44
2019-04-21T12:05:48.236Z,31.62
2019-04-21T12:08:24.937Z,31.84
2019-04-21T12:10:49.276Z,31.50
2019-04-21T12:13:18.640Z,31.61
2019-04-21T12:15:49.113Z,31.20
2019-04-21T12:18:19.700Z,31.58
2019-04-21T12:20:49.416Z,32.26
2019-04-21T12:23:18.554Z,32.40
2019-04-21T12:25:49.477Z,32.43
2019-04-21T12:28:19.716Z,32.09
2019-04-21T12:30:52.062Z,31.19
2019-04-21T12:33:40.325Z,31.12
2019-04-21T12:36:09.803Z,31.60
2019-04-21T12:38:48.214Z,31.78
2019-04-21T12:41:10.796Z,32.00
2019-04-21T12:43:40.078Z,31.83
2019-04-21T12:46:09.822Z,32.05
2019-04-21T12:48:39.988Z,31.77
2019-04-21T12:51:10.124Z,32.01
2019-04-21T12:53:39.520Z,31.91
2019-04-21T12:56:09.486Z,32.26
2019-04-21T12:58:39.529Z,32.29
2019-04-21T13:01:09.373Z,32.28
2019-04-21T13:03:39.748Z,32.10
2019-04-21T13:06:09.972Z,32.15
2019-04-21T13:08:50.951Z,31.52
2019-04-21T13:11:11.357Z,31.58
2019-04-21T13:13:42.047Z,31.79
2019-04-21T13:16:11.767Z,31.63
2019-04-21T13:18:41.707Z,32.20
2019-04-21T13:21:12.069Z,32.14
2019-04-21T13:23:41.286Z,31.61
2019-04-21T13:26:11.410Z,31.58
2019-04-21T13:28:40.603Z,31.38
2019-04-21T13:31:09.896Z,31.37
2019-04-21T13:33:39.892Z,31.02
2019-04-21T13:36:09.701Z,31.78
2019-04-21T13:38:50.844Z,31.32
2019-04-21T13:41:32.582Z,31.79
2019-04-21T13:44:10.995Z,31.01
2019-04-21T13:46:40.689Z,31.53
2019-04-21T13:49:11.603Z,32.12
2019-04-21T13:51:41.637Z,32.25
2019-04-21T13:54:11.557Z,32.45
2019-04-21T13:56:40.704Z,32.31
2019-04-21T13:59:10.554Z,32.11
2019-04-21T14:01:39.779Z,32.21
2019-04-21T14:04:09.524Z,31.95
2019-04-21T14:06:40.474Z,31.95
2019-04-21T14:09:10.897Z,31.33
2019-04-21T14:11:41.141Z,31.12
2019-04-21T14:14:10.577Z,31.23
2019-04-21T14:16:40.206Z,30.53
2019-04-21T14:19:09.743Z,31.41
2019-04-21T14:21:41.285Z,31.00
2019-04-21T14:24:10.850Z,31.31
2019-04-21T14:26:40.567Z,31.48
2019-04-21T14:29:11.401Z,31.21
2019-04-21T14:31:41.842Z,30.77
2019-04-21T14:34:12.122Z,30.35
2019-04-21T14:36:41.326Z,30.70
2019-04-21T14:39:12.501Z,30.74
2019-04-21T14:41:42.190Z,30.34
2019-04-21T14:44:11.516Z,29.76
2019-04-21T14:46:55.327Z,29.84
2019-04-21T14:50:03.054Z,29.54
2019-04-21T14:52:35.174Z,29.95
2019-04-21T14:55:18.546Z,29.49
2019-04-21T14:57:47.654Z,30.26
2019-04-21T15:00:19.022Z,30.44
2019-04-21T15:02:49.629Z,30.61
2019-04-21T15:05:19.695Z,30.13
2019-04-21T15:07:49.171Z,30.35
2019-04-21T15:10:23.557Z,30.15
2019-04-21T15:12:49.820Z,30.28
2019-04-21T15:15:20.090Z,30.26
2019-04-21T15:17:49.524Z,30.39
2019-04-21T15:20:20.185Z,30.24
2019-04-21T15:22:50.393Z,30.51
2019-04-21T15:25:20.409Z,30.56
2019-04-21T15:27:50.903Z,30.76
2019-04-21T15:30:20.780Z,30.78
2019-04-21T15:32:50.606Z,30.88
2019-04-21T15:35:19.719Z,30.50
2019-04-21T15:37:49.870Z,30.55
2019-04-21T15:40:31.513Z,30.21
2019-04-21T15:42:52.511Z,30.06
2019-04-21T15:45:22.013Z,29.75
2019-04-21T15:47:51.892Z,29.35
2019-04-21T15:50:23.150Z,29.03
2019-04-21T15:52:54.149Z,29.19
2019-04-21T15:55:41.333Z,29.07
2019-04-21T15:58:34.414Z,29.32
2019-04-21T16:01:14.491Z,29.13
2019-04-21T16:03:44.832Z,29.51
2019-04-21T16:06:13.946Z,29.19
2019-04-21T16:08:47.601Z,29.54
2019-04-21T16:11:15.671Z,29.63
2019-04-21T16:13:45.885Z,29.65
2019-04-21T16:16:15.028Z,29.24
2019-04-21T16:18:45.827Z,29.53
2019-04-21T16:21:15.931Z,29.08
2019-04-21T16:23:46.625Z,29.46
2019-04-21T16:26:17.026Z,29.30
2019-04-21T16:28:46.932Z,29.04
2019-04-21T16:31:16.489Z,28.82
2019-04-21T16:33:47.055Z,29.08
2019-04-21T16:36:17.110Z,28.69
2019-04-21T16:38:47.366Z,28.94
2019-04-21T16:41:18.160Z,28.84
2019-04-21T16:43:48.985Z,28.78
2019-04-21T16:46:19.646Z,28.58
2019-04-21T16:48:49.669Z,28.42
2019-04-21T16:51:20.059Z,28.37
2019-04-21T16:53:53.614Z,28.31
2019-04-21T16:56:27.063Z,28.27
2019-04-21T16:59:00.798Z,28.05
2019-04-21T17:01:31.727Z,28.15
2019-04-21T17:04:02.370Z,28.08
2019-04-21T17:06:33.121Z,28.16
2019-04-21T17:09:03.001Z,28.02
2019-04-21T17:11:35.325Z,27.97
2019-04-21T17:14:03.543Z,28.15
2019-04-21T17:17:16.146Z,28.12
2019-04-21T17:19:13.518Z,27.64
2019-04-21T17:21:34.373Z,27.83
2019-04-21T17:24:04.428Z,27.76
2019-04-21T17:26:37.216Z,27.81
2019-04-21T17:29:04.991Z,27.55
2019-04-21T17:31:34.125Z,27.17
2019-04-21T17:34:10.300Z,27.15
2019-04-21T17:36:34.906Z,26.71
2019-04-21T17:39:04.839Z,26.59
2019-04-21T17:41:41.580Z,26.50
2019-04-21T17:44:04.576Z,26.54
2019-04-21T17:46:43.864Z,26.63
2019-04-21T17:49:05.229Z,26.17
2019-04-21T17:52:00.507Z,26.07
2019-04-21T17:54:42.929Z,25.95
2019-04-21T17:57:26.679Z,25.56
2019-04-21T18:00:15.189Z,25.12
2019-04-21T18:02:35.388Z,24.63
2019-04-21T18:05:03.990Z,24.14
2019-04-21T18:07:34.969Z,23.85
2019-04-21T18:10:04.730Z,23.73
2019-04-21T18:12:30.407Z,23.43
2019-04-21T18:14:59.265Z,23.26
2019-04-21T18:17:18.423Z,23.05
2019-04-21T18:19:51.315Z,22.87
2019-04-21T18:22:49.189Z,22.64
2019-04-21T18:25:32.025Z,22.42
2019-04-21T18:27:50.547Z,22.29
2019-04-21T18:30:49.912Z,22.15
2019-04-21T18:33:26.626Z,22.03
2019-04-21T18:36:08.603Z,21.78
2019-04-21T18:39:06.903Z,21.72
2019-04-21T18:41:17.431Z,21.51
2019-04-21T18:44:19.443Z,21.41
2019-04-21T18:46:52.534Z,21.23
2019-04-21T18:49:07.719Z,21.32
2019-04-21T18:52:04.934Z,21.03
2019-04-21T18:54:47.221Z,20.96
2019-04-21T18:57:07.897Z,20.94
2019-04-21T18:59:36.135Z,20.85
2019-04-21T19:02:08.086Z,20.63
2019-04-21T19:04:35.142Z,20.46
2019-04-21T19:07:18.269Z,20.46
2019-04-21T19:10:09.942Z,20.16
2019-04-21T19:12:35.043Z,19.98
2019-04-21T19:14:55.035Z,19.99
2019-04-21T19:17:58.126Z,19.98
2019-04-21T19:20:01.926Z,19.93
2019-04-21T19:22:31.220Z,19.74
2019-04-21T19:24:59.702Z,19.68
2019-04-21T19:27:28.142Z,19.52
2019-04-21T19:30:05.782Z,19.39
2019-04-21T19:32:28.813Z,19.42
2019-04-21T19:34:47.397Z,19.34
2019-04-21T19:37:18.932Z,19.23
2019-04-21T19:39:58.927Z,19.25
2019-04-21T19:42:25.622Z,19.17
2019-04-21T19:45:03.311Z,19.08
2019-04-21T19:47:41.130Z,18.98
2019-04-21T19:50:05.976Z,18.91
2019-04-21T19:52:31.927Z,18.74
2019-04-21T19:54:50.736Z,18.52
2019-04-21T19:57:20.920Z,18.33
2019-04-21T19:59:55.333Z,18.20
2019-04-21T20:02:22.420Z,18.15
2019-04-21T20:05:00.802Z,18.02
2019-04-21T20:07:37.803Z,17.93
2019-04-21T20:10:15.484Z,17.87
2019-04-21T20:13:06.424Z,17.62
2019-04-21T20:15:21.830Z,17.49
2019-04-21T20:17:42.648Z,17.48
2019-04-21T20:19:58.254Z,17.30
2019-04-21T20:22:32.657Z,17.24
2019-04-21T20:25:04.950Z,17.24
2019-04-21T20:27:40.929Z,17.22
2019-04-21T20:30:16.165Z,17.07
2019-04-21T20:32:48.853Z,17.03
2019-04-21T20:35:21.233Z,17.00
2019-04-21T20:37:47.874Z,16.97
2019-04-21T20:40:10.114Z,16.91
2019-04-21T20:42:42.529Z,16.92
2019-04-21T20:47:41.322Z,16.79
2019-04-21T20:50:19.639Z,16.76
2019-04-21T20:52:55.175Z,16.61
2019-04-21T20:55:19.987Z,16.49
2019-04-21T20:57:53.786Z,16.55
2019-04-21T21:00:32.641Z,16.48
2019-04-21T21:03:07.084Z,16.30
2019-04-21T21:05:28.404Z,16.21
2019-04-21T21:08:13.614Z,16.14
2019-04-21T21:10:34.736Z,16.03
2019-04-21T21:13:14.261Z,16.00
2019-04-21T21:15:42.297Z,15.98
2019-04-21T21:18:22.728Z,15.91
2019-04-21T21:20:43.656Z,15.92
2019-04-21T21:23:05.755Z,15.94
2019-04-21T21:25:46.242Z,15.89
2019-04-21T21:28:04.271Z,15.87
2019-04-21T21:30:41.505Z,15.87
2019-04-21T21:33:15.349Z,15.88
2019-04-21T21:35:37.942Z,15.76
2019-04-21T21:38:21.293Z,15.73
2019-04-21T21:40:45.612Z,15.70
2019-04-21T21:43:01.524Z,15.69
2019-04-21T21:45:40.168Z,15.70
2019-04-21T21:48:20.558Z,15.61
2019-04-21T21:50:45.664Z,15.52
2019-04-21T21:53:13.207Z,15.35
2019-04-21T21:55:35.870Z,15.28
2019-04-21T21:58:06.437Z,15.21
2019-04-21T22:00:42.031Z,15.24
2019-04-21T22:03:17.529Z,15.12
2019-04-21T22:05:46.541Z,15.10
2019-04-21T22:08:10.451Z,15.21
2019-04-21T22:10:41.204Z,15.11
2019-04-21T22:13:14.695Z,14.96
2019-04-21T22:15:41.639Z,14.89
2019-04-21T22:18:31.453Z,14.86
2019-04-21T22:20:57.480Z,14.78
2019-04-21T22:23:24.131Z,14.70
2019-04-21T22:25:45.372Z,14.72
2019-04-21T22:28:14.157Z,14.68
2019-04-21T22:30:47.550Z,14.66
2019-04-21T22:33:17.524Z,14.53
2019-04-21T22:35:53.328Z,14.62
2019-04-21T22:38:31.034Z,14.59
2019-04-21T22:41:02.944Z,14.49
2019-04-21T22:43:25.008Z,14.50
2019-04-21T22:45:49.501Z,14.52
2019-04-21T22:48:21.726Z,14.44
2019-04-21T22:50:50.662Z,14.42
2019-04-21T22:53:21.441Z,14.56
2019-04-21T22:55:57.238Z,14.43
2019-04-21T22:58:28.252Z,14.43
2019-04-21T23:00:57.139Z,14.37
2019-04-21T23:03:25.205Z,14.25
2019-04-21T23:05:55.914Z,14.20
2019-04-21T23:08:31.780Z,14.07
2019-04-21T23:10:59.854Z,14.01
2019-04-21T23:13:28.577Z,13.86
2019-04-21T23:16:00.787Z,13.84
2019-04-21T23:18:45.074Z,13.77
2019-04-21T23:21:14.724Z,13.71
2019-04-21T23:23:54.642Z,13.52
2019-04-21T23:26:21.018Z,13.50
2019-04-21T23:28:50.689Z,13.65
2019-04-21T23:31:24.482Z,13.65
2019-04-21T23:33:34.621Z,13.74
2019-04-21T23:36:13.001Z,13.64
2019-04-21T23:38:43.526Z,13.48
2019-04-21T23:41:08.985Z,13.52
2019-04-21T23:43:38.152Z,13.49
2019-04-21T23:46:10.397Z,13.35
2019-04-21T23:48:55.870Z,13.27
2019-04-21T23:51:21.456Z,13.21
2019-04-21T23:53:41.535Z,13.21
2019-04-21T23:56:15.376Z,13.09
2019-04-21T23:58:44.856Z,13.05
